sensor_id;sensor_type;location;lat;lon;timestamp;temperature;humidity
70244;DHT22;57634;51.136;17.024;2023-05-23T00:02:52;16.40;53.70
70244;DHT22;57634;51.136;17.024;2023-05-23T00:05:53;16.30;53.80
70244;DHT22;57634;51.136;17.024;2023-05-23T00:08:56;16.20;54.10
70244;DHT22;57634;51.136;17.024;2023-05-23T00:11:57;16.10;54.30
70244;DHT22;57634;51.136;17.024;2023-05-23T00:14:59;16.10;54.70
70244;DHT22;57634;51.136;17.024;2023-05-23T00:18:00;16.00;54.90
70244;DHT22;57634;51.136;17.024;2023-05-23T00:21:01;15.90;55.20
70244;DHT22;57634;51.136;17.024;2023-05-23T00:24:03;15.90;55.40
70244;DHT22;57634;51.136;17.024;2023-05-23T00:27:05;15.80;55.50
70244;DHT22;57634;51.136;17.024;2023-05-23T00:30:07;15.80;55.80
70244;DHT22;57634;51.136;17.024;2023-05-23T00:33:09;15.70;56.00
70244;DHT22;57634;51.136;17.024;2023-05-23T00:36:39;15.70;56.20
70244;DHT22;57634;51.136;17.024;2023-05-23T00:39:43;15.60;56.60
70244;DHT22;57634;51.136;17.024;2023-05-23T00:42:46;15.60;56.80
70244;DHT22;57634;51.136;17.024;2023-05-23T00:45:48;15.50;57.00
70244;DHT22;57634;51.136;17.024;2023-05-23T00:48:50;15.40;57.10
70244;DHT22;57634;51.136;17.024;2023-05-23T00:51:51;15.40;57.30
70244;DHT22;57634;51.136;17.024;2023-05-23T00:54:52;15.40;57.50
70244;DHT22;57634;51.136;17.024;2023-05-23T00:57:54;15.30;57.60
70244;DHT22;57634;51.136;17.024;2023-05-23T01:00:57;15.30;57.80
70244;DHT22;57634;51.136;17.024;2023-05-23T01:03:59;15.20;58.00
70244;DHT22;57634;51.136;17.024;2023-05-23T01:07:02;15.20;58.10
70244;DHT22;57634;51.136;17.024;2023-05-23T01:10:04;15.20;58.20
70244;DHT22;57634;51.136;17.024;2023-05-23T01:13:39;15.20;58.20
70244;DHT22;57634;51.136;17.024;2023-05-23T01:16:47;15.20;58.50
70244;DHT22;57634;51.136;17.024;2023-05-23T01:20:02;15.20;58.60
70244;DHT22;57634;51.136;17.024;2023-05-23T01:30:04;15.00;58.70
70244;DHT22;57634;51.136;17.024;2023-05-23T01:33:08;15.00;59.00
70244;DHT22;57634;51.136;17.024;2023-05-23T01:36:12;15.00;59.10
70244;DHT22;57634;51.136;17.024;2023-05-23T01:39:15;14.90;59.30
70244;DHT22;57634;51.136;17.024;2023-05-23T01:42:16;14.90;59.40
70244;DHT22;57634;51.136;17.024;2023-05-23T01:45:19;14.90;59.50
70244;DHT22;57634;51.136;17.024;2023-05-23T01:48:22;14.90;59.70
70244;DHT22;57634;51.136;17.024;2023-05-23T01:51:25;14.80;59.80
70244;DHT22;57634;51.136;17.024;2023-05-23T01:54:28;14.80;59.80
70244;DHT22;57634;51.136;17.024;2023-05-23T01:57:31;14.80;59.90
70244;DHT22;57634;51.136;17.024;2023-05-23T02:01:01;14.80;60.00
70244;DHT22;57634;51.136;17.024;2023-05-23T02:04:03;14.70;60.20
70244;DHT22;57634;51.136;17.024;2023-05-23T02:07:04;14.70;60.40
70244;DHT22;57634;51.136;17.024;2023-05-23T02:10:08;14.70;60.70
70244;DHT22;57634;51.136;17.024;2023-05-23T02:13:09;14.60;60.80
70244;DHT22;57634;51.136;17.024;2023-05-23T02:16:10;14.50;60.90
70244;DHT22;57634;51.136;17.024;2023-05-23T02:19:14;14.50;61.00
70244;DHT22;57634;51.136;17.024;2023-05-23T02:22:16;14.50;61.20
70244;DHT22;57634;51.136;17.024;2023-05-23T02:25:17;14.50;61.30
70244;DHT22;57634;51.136;17.024;2023-05-23T02:28:18;14.40;61.40
70244;DHT22;57634;51.136;17.024;2023-05-23T02:31:20;14.40;61.40
70244;DHT22;57634;51.136;17.024;2023-05-23T02:34:22;14.40;61.60
70244;DHT22;57634;51.136;17.024;2023-05-23T02:37:23;14.30;61.80
70244;DHT22;57634;51.136;17.024;2023-05-23T02:40:52;14.30;61.90
70244;DHT22;57634;51.136;17.024;2023-05-23T02:43:54;14.30;62.10
70244;DHT22;57634;51.136;17.024;2023-05-23T02:46:55;14.30;62.20
70244;DHT22;57634;51.136;17.024;2023-05-23T02:49:57;14.30;62.30
70244;DHT22;57634;51.136;17.024;2023-05-23T02:52:58;14.30;62.40
70244;DHT22;57634;51.136;17.024;2023-05-23T02:55:59;14.30;62.30
70244;DHT22;57634;51.136;17.024;2023-05-23T02:59:00;14.30;62.40
70244;DHT22;57634;51.136;17.024;2023-05-23T03:02:01;14.30;62.50
70244;DHT22;57634;51.136;17.024;2023-05-23T03:05:03;14.30;62.50
70244;DHT22;57634;51.136;17.024;2023-05-23T03:08:05;14.30;62.60
70244;DHT22;57634;51.136;17.024;2023-05-23T03:11:07;14.30;62.80
70244;DHT22;57634;51.136;17.024;2023-05-23T03:14:08;14.30;62.90
70244;DHT22;57634;51.136;17.024;2023-05-23T03:17:12;14.30;62.90
70244;DHT22;57634;51.136;17.024;2023-05-23T03:20:14;14.30;62.80
70244;DHT22;57634;51.136;17.024;2023-05-23T03:23:42;14.30;62.80
70244;DHT22;57634;51.136;17.024;2023-05-23T03:26:43;14.30;62.90
70244;DHT22;57634;51.136;17.024;2023-05-23T03:29:45;14.40;62.90
70244;DHT22;57634;51.136;17.024;2023-05-23T03:32:48;14.40;62.90
70244;DHT22;57634;51.136;17.024;2023-05-23T03:35:50;14.40;62.90
70244;DHT22;57634;51.136;17.024;2023-05-23T03:38:53;14.40;62.80
70244;DHT22;57634;51.136;17.024;2023-05-23T03:41:54;14.50;62.80
70244;DHT22;57634;51.136;17.024;2023-05-23T03:44:55;14.60;62.70
70244;DHT22;57634;51.136;17.024;2023-05-23T03:47:58;14.60;62.50
70244;DHT22;57634;51.136;17.024;2023-05-23T03:50:59;14.70;62.20
70244;DHT22;57634;51.136;17.024;2023-05-23T03:54:01;14.80;62.20
70244;DHT22;57634;51.136;17.024;2023-05-23T03:57:02;14.90;62.00
70244;DHT22;57634;51.136;17.024;2023-05-23T04:00:04;15.10;61.80
70244;DHT22;57634;51.136;17.024;2023-05-23T04:03:37;15.40;61.50
70244;DHT22;57634;51.136;17.024;2023-05-23T04:06:39;15.60;60.80
70244;DHT22;57634;51.136;17.024;2023-05-23T04:09:40;15.90;60.20
70244;DHT22;57634;51.136;17.024;2023-05-23T04:12:41;16.00;59.50
70244;DHT22;57634;51.136;17.024;2023-05-23T04:15:44;16.20;59.20
70244;DHT22;57634;51.136;17.024;2023-05-23T04:18:47;16.20;58.80
70244;DHT22;57634;51.136;17.024;2023-05-23T04:21:50;16.20;58.70
70244;DHT22;57634;51.136;17.024;2023-05-23T04:24:51;16.30;58.70
70244;DHT22;57634;51.136;17.024;2023-05-23T04:27:52;16.50;58.70
70244;DHT22;57634;51.136;17.024;2023-05-23T04:30:56;16.80;58.40
70244;DHT22;57634;51.136;17.024;2023-05-23T04:33:58;17.30;57.70
70244;DHT22;57634;51.136;17.024;2023-05-23T04:37:00;17.70;56.50
70244;DHT22;57634;51.136;17.024;2023-05-23T04:40:31;18.30;55.10
70244;DHT22;57634;51.136;17.024;2023-05-23T04:43:32;18.80;53.40
70244;DHT22;57634;51.136;17.024;2023-05-23T04:46:34;19.10;52.50
70244;DHT22;57634;51.136;17.024;2023-05-23T04:49:37;19.50;51.60
70244;DHT22;57634;51.136;17.024;2023-05-23T04:52:40;20.10;50.60
70244;DHT22;57634;51.136;17.024;2023-05-23T04:55:41;20.80;49.30
70244;DHT22;57634;51.136;17.024;2023-05-23T04:58:42;21.60;47.70
70244;DHT22;57634;51.136;17.024;2023-05-23T05:01:45;22.40;46.00
70244;DHT22;57634;51.136;17.024;2023-05-23T05:04:46;23.30;44.00
70244;DHT22;57634;51.136;17.024;2023-05-23T05:07:47;24.30;42.20
70244;DHT22;57634;51.136;17.024;2023-05-23T05:10:48;25.40;40.30
70244;DHT22;57634;51.136;17.024;2023-05-23T05:13:50;26.60;37.90
70244;DHT22;57634;51.136;17.024;2023-05-23T05:16:52;27.20;35.90
70244;DHT22;57634;51.136;17.024;2023-05-23T05:20:22;27.60;35.40
70244;DHT22;57634;51.136;17.024;2023-05-23T05:23:25;28.20;33.80
70244;DHT22;57634;51.136;17.024;2023-05-23T05:26:30;28.90;32.50
70244;DHT22;57634;51.136;17.024;2023-05-23T05:29:31;29.60;31.50
70244;DHT22;57634;51.136;17.024;2023-05-23T05:32:34;30.20;30.20
70244;DHT22;57634;51.136;17.024;2023-05-23T05:35:36;30.20;29.70
70244;DHT22;57634;51.136;17.024;2023-05-23T05:38:39;29.60;29.40
70244;DHT22;57634;51.136;17.024;2023-05-23T05:41:41;28.80;30.00
70244;DHT22;57634;51.136;17.024;2023-05-23T05:44:42;27.90;31.00
70244;DHT22;57634;51.136;17.024;2023-05-23T05:47:44;27.30;32.20
70244;DHT22;57634;51.136;17.024;2023-05-23T05:50:46;26.90;32.80
70244;DHT22;57634;51.136;17.024;2023-05-23T05:53:47;27.10;33.20
70244;DHT22;57634;51.136;17.024;2023-05-23T05:57:16;27.90;33.10
70244;DHT22;57634;51.136;17.024;2023-05-23T06:00:18;29.30;31.50
70244;DHT22;57634;51.136;17.024;2023-05-23T06:03:19;30.70;30.00
70244;DHT22;57634;51.136;17.024;2023-05-23T06:06:20;32.00;28.60
70244;DHT22;57634;51.136;17.024;2023-05-23T06:09:22;33.10;27.70
70244;DHT22;57634;51.136;17.024;2023-05-23T06:12:23;34.00;26.60
70244;DHT22;57634;51.136;17.024;2023-05-23T06:15:25;34.60;26.00
70244;DHT22;57634;51.136;17.024;2023-05-23T06:18:26;35.40;25.50
70244;DHT22;57634;51.136;17.024;2023-05-23T06:21:28;36.30;24.80
70244;DHT22;57634;51.136;17.024;2023-05-23T06:24:29;37.10;23.90
70244;DHT22;57634;51.136;17.024;2023-05-23T06:27:30;37.30;23.10
70244;DHT22;57634;51.136;17.024;2023-05-23T06:30:32;36.90;23.30
70244;DHT22;57634;51.136;17.024;2023-05-23T06:33:37;36.70;23.40
70244;DHT22;57634;51.136;17.024;2023-05-23T06:37:06;36.30;23.30
70244;DHT22;57634;51.136;17.024;2023-05-23T06:40:09;35.50;23.60
70244;DHT22;57634;51.136;17.024;2023-05-23T06:43:10;35.30;23.90
70244;DHT22;57634;51.136;17.024;2023-05-23T06:46:12;35.40;23.90
70244;DHT22;57634;51.136;17.024;2023-05-23T06:49:14;35.60;23.50
70244;DHT22;57634;51.136;17.024;2023-05-23T06:52:15;35.20;23.50
70244;DHT22;57634;51.136;17.024;2023-05-23T06:55:17;34.40;24.10
70244;DHT22;57634;51.136;17.024;2023-05-23T06:58:21;34.10;24.80
70244;DHT22;57634;51.136;17.024;2023-05-23T07:01:25;34.60;24.80
70244;DHT22;57634;51.136;17.024;2023-05-23T07:04:26;35.20;24.20
70244;DHT22;57634;51.136;17.024;2023-05-23T07:07:27;35.40;23.70
70244;DHT22;57634;51.136;17.024;2023-05-23T07:10:28;34.90;23.80
70244;DHT22;57634;51.136;17.024;2023-05-23T07:13:29;34.70;24.70
70244;DHT22;57634;51.136;17.024;2023-05-23T07:16:57;35.50;24.30
70244;DHT22;57634;51.136;17.024;2023-05-23T07:19:58;36.70;23.30
70244;DHT22;57634;51.136;17.024;2023-05-23T07:22:59;37.90;22.80
70244;DHT22;57634;51.136;17.024;2023-05-23T07:26:01;39.00;21.60
70244;DHT22;57634;51.136;17.024;2023-05-23T07:29:04;39.60;21.00
70244;DHT22;57634;51.136;17.024;2023-05-23T07:32:07;39.80;20.40
70244;DHT22;57634;51.136;17.024;2023-05-23T07:35:09;39.20;20.60
70244;DHT22;57634;51.136;17.024;2023-05-23T07:38:10;38.30;20.80
70244;DHT22;57634;51.136;17.024;2023-05-23T07:41:11;36.50;21.40
70244;DHT22;57634;51.136;17.024;2023-05-23T07:44:13;34.10;22.90
70244;DHT22;57634;51.136;17.024;2023-05-23T07:47:14;32.30;24.60
70244;DHT22;57634;51.136;17.024;2023-05-23T07:50:15;31.20;25.80
70244;DHT22;57634;51.136;17.024;2023-05-23T07:53:18;30.40;26.70
70244;DHT22;57634;51.136;17.024;2023-05-23T07:56:47;29.60;27.50
70244;DHT22;57634;51.136;17.024;2023-05-23T07:59:48;28.90;28.40
70244;DHT22;57634;51.136;17.024;2023-05-23T08:02:49;28.20;29.10
70244;DHT22;57634;51.136;17.024;2023-05-23T08:05:50;27.70;29.80
70244;DHT22;57634;51.136;17.024;2023-05-23T08:08:51;27.40;30.30
70244;DHT22;57634;51.136;17.024;2023-05-23T08:11:52;27.10;30.90
70244;DHT22;57634;51.136;17.024;2023-05-23T08:14:54;27.00;31.30
70244;DHT22;57634;51.136;17.024;2023-05-23T08:17:55;26.90;31.60
70244;DHT22;57634;51.136;17.024;2023-05-23T08:20:59;26.80;31.90
70244;DHT22;57634;51.136;17.024;2023-05-23T08:26:24;26.60;32.50
70244;DHT22;57634;51.136;17.024;2023-05-23T08:29:32;26.40;32.80
70244;DHT22;57634;51.136;17.024;2023-05-23T08:32:35;26.20;32.90
70244;DHT22;57634;51.136;17.024;2023-05-23T08:35:37;25.90;33.20
70244;DHT22;57634;51.136;17.024;2023-05-23T08:38:38;25.80;33.70
70244;DHT22;57634;51.136;17.024;2023-05-23T08:41:39;25.60;34.20
70244;DHT22;57634;51.136;17.024;2023-05-23T08:44:41;25.40;34.40
70244;DHT22;57634;51.136;17.024;2023-05-23T08:47:46;25.30;34.90
70244;DHT22;57634;51.136;17.024;2023-05-23T08:50:50;25.20;35.20
70244;DHT22;57634;51.136;17.024;2023-05-23T08:53:53;25.10;35.80
70244;DHT22;57634;51.136;17.024;2023-05-23T08:57:22;24.90;36.60
70244;DHT22;57634;51.136;17.024;2023-05-23T09:00:25;24.80;37.60
70244;DHT22;57634;51.136;17.024;2023-05-23T09:03:28;24.80;37.90
70244;DHT22;57634;51.136;17.024;2023-05-23T09:06:29;24.80;37.80
70244;DHT22;57634;51.136;17.024;2023-05-23T09:09:32;24.70;38.00
70244;DHT22;57634;51.136;17.024;2023-05-23T09:12:34;24.60;38.10
70244;DHT22;57634;51.136;17.024;2023-05-23T09:18:52;24.30;38.50
70244;DHT22;57634;51.136;17.024;2023-05-23T09:21:53;24.10;39.40
70244;DHT22;57634;51.136;17.024;2023-05-23T09:24:56;23.90;40.00
70244;DHT22;57634;51.136;17.024;2023-05-23T09:28:23;23.70;40.90
70244;DHT22;57634;51.136;17.024;2023-05-23T09:31:26;23.40;42.10
70244;DHT22;57634;51.136;17.024;2023-05-23T09:34:30;23.20;42.90
70244;DHT22;57634;51.136;17.024;2023-05-23T09:37:37;23.10;43.20
70244;DHT22;57634;51.136;17.024;2023-05-23T09:40:44;22.90;44.10
70244;DHT22;57634;51.136;17.024;2023-05-23T09:43:49;22.80;44.80
70244;DHT22;57634;51.136;17.024;2023-05-23T09:46:52;22.60;45.40
70244;DHT22;57634;51.136;17.024;2023-05-23T09:49:54;22.50;46.30
70244;DHT22;57634;51.136;17.024;2023-05-23T09:52:55;22.40;46.50
70244;DHT22;57634;51.136;17.024;2023-05-23T09:56:26;22.40;47.20
70244;DHT22;57634;51.136;17.024;2023-05-23T09:59:30;22.30;47.80
70244;DHT22;57634;51.136;17.024;2023-05-23T10:05:48;22.20;48.70
70244;DHT22;57634;51.136;17.024;2023-05-23T10:09:03;22.20;49.00
70244;DHT22;57634;51.136;17.024;2023-05-23T10:15:39;22.10;49.60
70244;DHT22;57634;51.136;17.024;2023-05-23T10:18:48;22.10;50.00
70244;DHT22;57634;51.136;17.024;2023-05-23T10:22:00;22.10;50.40
70244;DHT22;57634;51.136;17.024;2023-05-23T10:25:04;22.10;50.40
70244;DHT22;57634;51.136;17.024;2023-05-23T10:28:08;22.10;50.30
70244;DHT22;57634;51.136;17.024;2023-05-23T10:31:11;22.00;50.60
70244;DHT22;57634;51.136;17.024;2023-05-23T10:37:58;22.00;50.50
70244;DHT22;57634;51.136;17.024;2023-05-23T10:41:11;22.00;51.30
70244;DHT22;57634;51.136;17.024;2023-05-23T10:47:27;22.20;51.40
70244;DHT22;57634;51.136;17.024;2023-05-23T10:50:32;22.30;51.00
70244;DHT22;57634;51.136;17.024;2023-05-23T10:53:39;22.50;51.00
70244;DHT22;57634;51.136;17.024;2023-05-23T10:57:06;22.60;50.60
70244;DHT22;57634;51.136;17.024;2023-05-23T11:00:12;22.80;50.00
70244;DHT22;57634;51.136;17.024;2023-05-23T11:03:17;22.90;49.70
70244;DHT22;57634;51.136;17.024;2023-05-23T11:06:28;23.10;49.50
70244;DHT22;57634;51.136;17.024;2023-05-23T11:09:29;23.20;49.10
70244;DHT22;57634;51.136;17.024;2023-05-23T11:12:38;23.30;49.00
70244;DHT22;57634;51.136;17.024;2023-05-23T11:15:41;23.40;49.00
70244;DHT22;57634;51.136;17.024;2023-05-23T11:18:45;23.50;48.80
70244;DHT22;57634;51.136;17.024;2023-05-23T11:22:12;23.50;48.70
70244;DHT22;57634;51.136;17.024;2023-05-23T11:25:13;23.60;48.70
70244;DHT22;57634;51.136;17.024;2023-05-23T11:28:17;23.70;48.40
70244;DHT22;57634;51.136;17.024;2023-05-23T11:31:20;23.90;48.20
70244;DHT22;57634;51.136;17.024;2023-05-23T11:34:24;24.10;48.10
70244;DHT22;57634;51.136;17.024;2023-05-23T11:37:26;24.20;47.70
70244;DHT22;57634;51.136;17.024;2023-05-23T11:40:29;24.40;47.70
70244;DHT22;57634;51.136;17.024;2023-05-23T11:43:34;24.50;47.50
70244;DHT22;57634;51.136;17.024;2023-05-23T11:46:36;24.70;47.30
70244;DHT22;57634;51.136;17.024;2023-05-23T11:49:38;24.80;47.00
70244;DHT22;57634;51.136;17.024;2023-05-23T11:52:41;25.00;46.70
70244;DHT22;57634;51.136;17.024;2023-05-23T11:56:08;25.20;46.20
70244;DHT22;57634;51.136;17.024;2023-05-23T11:59:09;25.40;45.70
70244;DHT22;57634;51.136;17.024;2023-05-23T12:02:11;25.40;45.30
70244;DHT22;57634;51.136;17.024;2023-05-23T12:05:14;25.40;45.00
70244;DHT22;57634;51.136;17.024;2023-05-23T12:08:16;25.40;45.00
70244;DHT22;57634;51.136;17.024;2023-05-23T12:11:17;25.50;45.20
70244;DHT22;57634;51.136;17.024;2023-05-23T12:14:18;25.50;45.20
70244;DHT22;57634;51.136;17.024;2023-05-23T12:17:20;25.50;45.00
70244;DHT22;57634;51.136;17.024;2023-05-23T12:20:21;25.50;44.90
70244;DHT22;57634;51.136;17.024;2023-05-23T12:23:29;25.50;44.80
70244;DHT22;57634;51.136;17.024;2023-05-23T12:26:30;25.40;45.00
70244;DHT22;57634;51.136;17.024;2023-05-23T12:29:34;25.20;45.20
70244;DHT22;57634;51.136;17.024;2023-05-23T12:33:07;25.10;45.70
70244;DHT22;57634;51.136;17.024;2023-05-23T12:36:13;25.00;46.20
70244;DHT22;57634;51.136;17.024;2023-05-23T12:39:15;25.00;46.40
70244;DHT22;57634;51.136;17.024;2023-05-23T12:42:16;25.00;46.40
70244;DHT22;57634;51.136;17.024;2023-05-23T12:45:23;25.00;46.60
70244;DHT22;57634;51.136;17.024;2023-05-23T12:48:25;25.10;46.60
70244;DHT22;57634;51.136;17.024;2023-05-23T12:51:27;25.20;46.50
70244;DHT22;57634;51.136;17.024;2023-05-23T12:54:28;25.40;46.10
70244;DHT22;57634;51.136;17.024;2023-05-23T12:57:30;25.60;45.70
70244;DHT22;57634;51.136;17.024;2023-05-23T13:00:32;25.80;45.10
70244;DHT22;57634;51.136;17.024;2023-05-23T13:03:33;26.00;44.70
70244;DHT22;57634;51.136;17.024;2023-05-23T13:07:01;26.10;44.10
70244;DHT22;57634;51.136;17.024;2023-05-23T13:10:02;26.10;43.70
70244;DHT22;57634;51.136;17.024;2023-05-23T13:13:05;25.90;43.70
70244;DHT22;57634;51.136;17.024;2023-05-23T13:16:07;25.70;44.20
70244;DHT22;57634;51.136;17.024;2023-05-23T13:19:10;25.60;44.30
70244;DHT22;57634;51.136;17.024;2023-05-23T13:22:13;25.50;44.70
70244;DHT22;57634;51.136;17.024;2023-05-23T13:25:14;25.60;44.90
70244;DHT22;57634;51.136;17.024;2023-05-23T13:28:16;25.60;44.50
70244;DHT22;57634;51.136;17.024;2023-05-23T13:31:18;25.70;44.40
70244;DHT22;57634;51.136;17.024;2023-05-23T13:34:21;25.70;44.60
70244;DHT22;57634;51.136;17.024;2023-05-23T13:37:22;25.70;44.60
70244;DHT22;57634;51.136;17.024;2023-05-23T13:40:24;25.60;44.80
70244;DHT22;57634;51.136;17.024;2023-05-23T13:43:25;25.50;45.10
70244;DHT22;57634;51.136;17.024;2023-05-23T13:46:53;25.40;45.20
70244;DHT22;57634;51.136;17.024;2023-05-23T13:49:55;25.30;45.50
70244;DHT22;57634;51.136;17.024;2023-05-23T13:52:56;25.20;45.70
70244;DHT22;57634;51.136;17.024;2023-05-23T13:55:58;25.10;45.90
70244;DHT22;57634;51.136;17.024;2023-05-23T13:59:00;25.00;46.10
70244;DHT22;57634;51.136;17.024;2023-05-23T14:02:01;25.10;46.00
70244;DHT22;57634;51.136;17.024;2023-05-23T14:05:03;25.10;45.60
70244;DHT22;57634;51.136;17.024;2023-05-23T14:08:05;25.10;45.50
70244;DHT22;57634;51.136;17.024;2023-05-23T14:11:07;25.10;45.40
70244;DHT22;57634;51.136;17.024;2023-05-23T14:14:08;25.20;45.40
70244;DHT22;57634;51.136;17.024;2023-05-23T14:17:14;25.10;45.30
70244;DHT22;57634;51.136;17.024;2023-05-23T14:20:16;25.10;45.60
70244;DHT22;57634;51.136;17.024;2023-05-23T14:23:17;25.20;45.80
70244;DHT22;57634;51.136;17.024;2023-05-23T14:26:45;25.20;46.00
70244;DHT22;57634;51.136;17.024;2023-05-23T14:29:46;25.20;46.30
70244;DHT22;57634;51.136;17.024;2023-05-23T14:32:49;25.20;46.10
70244;DHT22;57634;51.136;17.024;2023-05-23T14:35:51;25.20;46.10
70244;DHT22;57634;51.136;17.024;2023-05-23T14:38:52;25.10;45.80
70244;DHT22;57634;51.136;17.024;2023-05-23T14:41:54;25.20;45.60
70244;DHT22;57634;51.136;17.024;2023-05-23T14:44:55;25.10;45.40
70244;DHT22;57634;51.136;17.024;2023-05-23T14:47:56;25.10;45.20
70244;DHT22;57634;51.136;17.024;2023-05-23T14:50:57;25.20;45.00
70244;DHT22;57634;51.136;17.024;2023-05-23T14:54:01;25.10;45.00
70244;DHT22;57634;51.136;17.024;2023-05-23T14:57:03;25.10;45.10
70244;DHT22;57634;51.136;17.024;2023-05-23T15:00:05;25.00;45.40
70244;DHT22;57634;51.136;17.024;2023-05-23T15:03:37;25.00;45.90
70244;DHT22;57634;51.136;17.024;2023-05-23T15:06:39;24.90;46.60
70244;DHT22;57634;51.136;17.024;2023-05-23T15:09:40;24.80;46.90
70244;DHT22;57634;51.136;17.024;2023-05-23T15:12:42;24.70;46.90
70244;DHT22;57634;51.136;17.024;2023-05-23T15:15:43;24.70;47.20
70244;DHT22;57634;51.136;17.024;2023-05-23T15:18:44;24.60;47.10
70244;DHT22;57634;51.136;17.024;2023-05-23T15:21:46;24.60;47.00
70244;DHT22;57634;51.136;17.024;2023-05-23T15:24:47;24.60;46.80
70244;DHT22;57634;51.136;17.024;2023-05-23T15:27:52;24.50;46.90
70244;DHT22;57634;51.136;17.024;2023-05-23T15:30:53;24.50;46.80
70244;DHT22;57634;51.136;17.024;2023-05-23T15:33:58;24.40;46.80
70244;DHT22;57634;51.136;17.024;2023-05-23T15:37:00;24.30;47.10
70244;DHT22;57634;51.136;17.024;2023-05-23T15:40:01;24.30;47.70
70244;DHT22;57634;51.136;17.024;2023-05-23T15:43:29;24.20;48.00
70244;DHT22;57634;51.136;17.024;2023-05-23T15:46:32;24.10;48.70
70244;DHT22;57634;51.136;17.024;2023-05-23T15:49:34;24.00;48.90
70244;DHT22;57634;51.136;17.024;2023-05-23T15:52:35;24.00;49.20
70244;DHT22;57634;51.136;17.024;2023-05-23T15:55:36;23.90;49.40
70244;DHT22;57634;51.136;17.024;2023-05-23T15:58:38;23.80;49.70
70244;DHT22;57634;51.136;17.024;2023-05-23T16:01:40;23.70;49.90
70244;DHT22;57634;51.136;17.024;2023-05-23T16:04:41;23.60;50.00
70244;DHT22;57634;51.136;17.024;2023-05-23T16:07:43;23.50;50.10
70244;DHT22;57634;51.136;17.024;2023-05-23T16:10:44;23.40;50.20
70244;DHT22;57634;51.136;17.024;2023-05-23T16:13:45;23.30;50.30
70244;DHT22;57634;51.136;17.024;2023-05-23T16:16:46;23.30;50.40
70244;DHT22;57634;51.136;17.024;2023-05-23T16:19:47;23.20;50.60
70244;DHT22;57634;51.136;17.024;2023-05-23T16:22:48;23.10;50.80
70244;DHT22;57634;51.136;17.024;2023-05-23T16:26:16;23.00;51.10
70244;DHT22;57634;51.136;17.024;2023-05-23T16:29:19;22.90;51.80
70244;DHT22;57634;51.136;17.024;2023-05-23T16:32:20;22.80;52.00
70244;DHT22;57634;51.136;17.024;2023-05-23T16:35:21;22.70;52.40
70244;DHT22;57634;51.136;17.024;2023-05-23T16:38:23;22.60;52.70
70244;DHT22;57634;51.136;17.024;2023-05-23T16:41:24;22.40;52.80
70244;DHT22;57634;51.136;17.024;2023-05-23T16:44:26;22.50;52.90
70244;DHT22;57634;51.136;17.024;2023-05-23T16:47:27;22.50;53.00
70244;DHT22;57634;51.136;17.024;2023-05-23T16:50:28;22.50;53.00
70244;DHT22;57634;51.136;17.024;2023-05-23T16:53:30;22.60;53.20
70244;DHT22;57634;51.136;17.024;2023-05-23T16:56:32;22.60;53.20
70244;DHT22;57634;51.136;17.024;2023-05-23T16:59:33;22.60;53.20
70244;DHT22;57634;51.136;17.024;2023-05-23T17:02:34;22.70;53.60
70244;DHT22;57634;51.136;17.024;2023-05-23T17:05:36;22.70;53.70
70244;DHT22;57634;51.136;17.024;2023-05-23T17:09:04;22.60;53.70
70244;DHT22;57634;51.136;17.024;2023-05-23T17:12:06;22.60;54.00
70244;DHT22;57634;51.136;17.024;2023-05-23T17:15:08;22.60;54.20
70244;DHT22;57634;51.136;17.024;2023-05-23T17:18:09;22.60;54.40
70244;DHT22;57634;51.136;17.024;2023-05-23T17:21:10;22.60;54.50
70244;DHT22;57634;51.136;17.024;2023-05-23T17:24:12;22.50;54.70
70244;DHT22;57634;51.136;17.024;2023-05-23T17:27:13;22.50;55.00
70244;DHT22;57634;51.136;17.024;2023-05-23T17:30:14;22.40;55.30
70244;DHT22;57634;51.136;17.024;2023-05-23T17:33:18;22.30;55.70
70244;DHT22;57634;51.136;17.024;2023-05-23T17:36:20;22.20;56.00
70244;DHT22;57634;51.136;17.024;2023-05-23T17:39:21;22.10;56.30
70244;DHT22;57634;51.136;17.024;2023-05-23T17:42:23;22.00;56.90
70244;DHT22;57634;51.136;17.024;2023-05-23T17:45:24;21.80;57.50
70244;DHT22;57634;51.136;17.024;2023-05-23T17:48:25;21.70;58.20
70244;DHT22;57634;51.136;17.024;2023-05-23T17:51:53;21.60;58.80
70244;DHT22;57634;51.136;17.024;2023-05-23T17:54:55;21.40;59.60
70244;DHT22;57634;51.136;17.024;2023-05-23T17:57:56;21.30;60.20
70244;DHT22;57634;51.136;17.024;2023-05-23T18:00:57;21.20;60.70
70244;DHT22;57634;51.136;17.024;2023-05-23T18:03:59;21.10;61.20
70244;DHT22;57634;51.136;17.024;2023-05-23T18:07:01;21.00;61.70
70244;DHT22;57634;51.136;17.024;2023-05-23T18:10:03;20.90;62.00
70244;DHT22;57634;51.136;17.024;2023-05-23T18:13:04;20.90;62.40
70244;DHT22;57634;51.136;17.024;2023-05-23T18:16:06;20.90;62.60
70244;DHT22;57634;51.136;17.024;2023-05-23T18:19:07;20.80;62.80
70244;DHT22;57634;51.136;17.024;2023-05-23T18:22:08;20.70;63.00
70244;DHT22;57634;51.136;17.024;2023-05-23T18:25:10;20.80;63.20
70244;DHT22;57634;51.136;17.024;2023-05-23T18:28:13;20.70;63.20
70244;DHT22;57634;51.136;17.024;2023-05-23T18:31:14;20.50;63.40
70244;DHT22;57634;51.136;17.024;2023-05-23T18:34:41;20.40;63.60
70244;DHT22;57634;51.136;17.024;2023-05-23T18:37:43;20.30;64.50
70244;DHT22;57634;51.136;17.024;2023-05-23T18:40:44;20.10;65.20
70244;DHT22;57634;51.136;17.024;2023-05-23T18:43:47;20.00;65.80
70244;DHT22;57634;51.136;17.024;2023-05-23T18:46:49;19.90;66.40
70244;DHT22;57634;51.136;17.024;2023-05-23T18:49:50;19.80;66.80
70244;DHT22;57634;51.136;17.024;2023-05-23T18:52:53;19.70;67.20
70244;DHT22;57634;51.136;17.024;2023-05-23T18:55:54;19.70;67.50
70244;DHT22;57634;51.136;17.024;2023-05-23T18:58:55;19.60;67.70
70244;DHT22;57634;51.136;17.024;2023-05-23T19:01:56;19.50;67.90
70244;DHT22;57634;51.136;17.024;2023-05-23T19:05:00;19.50;67.90
70244;DHT22;57634;51.136;17.024;2023-05-23T19:08:01;19.50;67.90
70244;DHT22;57634;51.136;17.024;2023-05-23T19:11:03;19.50;67.80
70244;DHT22;57634;51.136;17.024;2023-05-23T19:14:34;19.40;67.60
70244;DHT22;57634;51.136;17.024;2023-05-23T19:17:36;19.40;67.60
70244;DHT22;57634;51.136;17.024;2023-05-23T19:20:39;19.30;67.70
70244;DHT22;57634;51.136;17.024;2023-05-23T19:23:40;19.30;68.30
70244;DHT22;57634;51.136;17.024;2023-05-23T19:26:41;19.30;68.60
70244;DHT22;57634;51.136;17.024;2023-05-23T19:29:43;19.20;68.80
70244;DHT22;57634;51.136;17.024;2023-05-23T19:32:45;19.20;69.00